Terminal Aerodrome Forecast
Issued by NWS Charleston, WV

Current Version | Previous Version | Text Only | Print | Product List | Glossary Off
Versions: 1 2 3 4 5 6 7 8 9 10 11 12 13 14 15 16 17 18 19 20 21 22

000
FTUS41 KRLX 181720
TAFBKW
TAF
KBKW 181720Z 1818/1918 11011G19KT P6SM SHRA VCTS BKN015CB
     FM182100 12011G23KT P6SM VCTS OVC020CB
     FM190000 12009KT P6SM SHRA OVC020
     FM190500 14011G17KT P6SM BKN020
     FM190900 15011G17KT P6SM BKN010
     FM191500 17011G17KT P6SM BKN015
     FM191700 18011G17KT P6SM SHRA VCTS BKN030CB=

USA.gov is the U.S. government's official web portal to all federal, state and local government web resources and services.